createdAt,value
2018-12-02T00:00:19.656Z,17.13
2018-12-02T00:02:47.816Z,19.60
2018-12-02T00:05:15.967Z,18.87
2018-12-02T00:07:44.136Z,17.77
2018-12-02T00:10:12.823Z,16.63
2018-12-02T00:12:40.964Z,17.10
2018-12-02T00:15:17.169Z,17.20
2018-12-02T00:17:45.326Z,16.07
2018-12-02T00:20:14.001Z,16.60
2018-12-02T00:22:42.156Z,17.73
2018-12-02T00:25:11.806Z,18.60
2018-12-02T00:27:40.186Z,15.77
2018-12-02T00:30:10.276Z,16.53
2018-12-02T00:32:38.412Z,18.57
2018-12-02T00:35:07.561Z,17.40
2018-12-02T00:37:35.739Z,17.43
2018-12-02T00:40:05.233Z,14.57
2018-12-02T00:42:33.445Z,15.70
2018-12-02T00:45:01.580Z,16.50
2018-12-02T00:47:29.729Z,17.23
2018-12-02T00:49:57.882Z,18.67
2018-12-02T00:52:26.036Z,18.53
2018-12-02T00:54:54.170Z,17.93
2018-12-02T00:57:22.321Z,17.13
2018-12-02T00:59:50.468Z,19.13
2018-12-02T01:02:18.604Z,19.23
2018-12-02T01:04:46.740Z,19.87
2018-12-02T01:07:14.920Z,20.23
2018-12-02T01:09:43.044Z,20.87
2018-12-02T01:12:11.181Z,20.30
2018-12-02T01:14:39.331Z,20.13
2018-12-02T01:17:07.492Z,19.27
2018-12-02T01:19:35.631Z,20.23
2018-12-02T01:22:03.776Z,19.10
2018-12-02T01:24:31.904Z,14.83
2018-12-02T01:27:00.052Z,18.57
2018-12-02T01:29:28.200Z,18.73
2018-12-02T01:31:56.340Z,17.97
2018-12-02T01:34:24.468Z,21.53
2018-12-02T01:36:52.639Z,21.00
2018-12-02T01:39:20.868Z,21.20
2018-12-02T01:41:49.004Z,20.50
2018-12-02T01:44:17.222Z,22.53
2018-12-02T01:46:45.367Z,20.43
2018-12-02T01:49:13.505Z,22.27
2018-12-02T01:51:41.652Z,22.07
2018-12-02T01:54:09.775Z,26.70
2018-12-02T01:56:37.923Z,25.97
2018-12-02T01:59:06.468Z,20.43
2018-12-02T02:01:34.620Z,23.53
2018-12-02T02:04:02.768Z,23.03
2018-12-02T02:06:30.901Z,25.73
2018-12-02T02:08:59.033Z,31.10
2018-12-02T02:11:27.171Z,25.00
2018-12-02T02:13:55.320Z,30.27
2018-12-02T02:16:23.480Z,26.47
2018-12-02T02:18:51.798Z,28.10
2018-12-02T02:21:19.968Z,24.10
2018-12-02T02:23:48.099Z,25.20
2018-12-02T02:26:16.237Z,24.77
2018-12-02T02:28:44.387Z,22.40
2018-12-02T02:31:12.529Z,23.30
2018-12-02T02:33:40.651Z,23.33
2018-12-02T02:36:08.816Z,21.80
2018-12-02T02:38:36.936Z,20.63
2018-12-02T02:41:05.319Z,21.63
2018-12-02T02:43:33.472Z,20.90
2018-12-02T02:46:01.829Z,21.50
2018-12-02T02:48:29.973Z,18.03
2018-12-02T02:50:58.124Z,18.57
2018-12-02T02:53:26.312Z,18.47
2018-12-02T02:55:54.447Z,19.27
2018-12-02T02:58:22.603Z,19.37
2018-12-02T03:00:50.750Z,21.37
2018-12-02T03:03:18.885Z,18.17
2018-12-02T03:05:47.052Z,14.27
2018-12-02T03:08:15.193Z,16.43
2018-12-02T03:10:43.336Z,17.47
2018-12-02T03:13:11.480Z,16.37
2018-12-02T03:15:39.625Z,16.10
2018-12-02T03:18:07.764Z,15.83
2018-12-02T03:20:35.925Z,15.80
2018-12-02T03:23:04.356Z,17.03
2018-12-02T03:25:32.496Z,16.03
2018-12-02T03:28:00.640Z,15.33
2018-12-02T03:30:28.780Z,15.63
2018-12-02T03:32:56.913Z,16.63
2018-12-02T03:35:26.406Z,18.07
2018-12-02T03:37:55.023Z,17.60
2018-12-02T03:40:26.492Z,17.87
2018-12-02T03:42:54.688Z,16.03
2018-12-02T03:45:23.436Z,16.87
2018-12-02T03:47:51.675Z,15.63
2018-12-02T03:50:20.329Z,17.97
2018-12-02T03:52:48.468Z,14.80
2018-12-02T03:55:16.642Z,15.07
2018-12-02T03:57:44.787Z,14.67
2018-12-02T04:00:13.416Z,13.77
2018-12-02T04:02:41.597Z,12.63
2018-12-02T04:05:10.461Z,13.23
2018-12-02T04:07:38.646Z,12.10
2018-12-02T04:10:08.646Z,11.90
2018-12-02T04:12:36.776Z,11.90
2018-12-02T04:15:06.169Z,13.23
2018-12-02T04:17:34.315Z,11.60
2018-12-02T04:20:02.443Z,12.13
2018-12-02T04:22:30.607Z,11.57
2018-12-02T04:24:58.766Z,11.90
2018-12-02T04:27:26.913Z,12.43
2018-12-02T04:29:55.050Z,11.77
2018-12-02T04:32:23.198Z,11.37
2018-12-02T04:34:51.329Z,11.50
2018-12-02T04:37:19.530Z,9.27
2018-12-02T04:39:47.684Z,21.23
2018-12-02T04:42:15.808Z,8.73
2018-12-02T04:44:43.946Z,9.43
2018-12-02T04:47:12.104Z,9.90
2018-12-02T04:49:40.316Z,10.50
2018-12-02T04:52:08.456Z,6.83
2018-12-02T04:54:36.607Z,5.40
2018-12-02T04:57:05.091Z,5.43
2018-12-02T04:59:33.233Z,4.50
2018-12-02T05:02:01.419Z,4.40
2018-12-02T05:04:29.563Z,3.30
2018-12-02T05:06:57.684Z,4.20
2018-12-02T05:09:25.819Z,3.50
2018-12-02T05:11:53.945Z,3.37
2018-12-02T05:14:22.087Z,3.17
2018-12-02T05:16:50.226Z,4.00
2018-12-02T05:19:18.355Z,2.70
2018-12-02T05:21:46.472Z,2.50
2018-12-02T05:24:14.640Z,2.73
2018-12-02T05:26:42.767Z,2.20
2018-12-02T05:29:10.915Z,2.20
2018-12-02T05:31:39.041Z,2.30
2018-12-02T05:34:07.173Z,2.30
2018-12-02T05:36:35.311Z,2.27
2018-12-02T05:39:03.957Z,2.60
2018-12-02T05:41:37.519Z,2.13
2018-12-02T05:44:05.661Z,3.40
2018-12-02T05:46:33.800Z,3.30
2018-12-02T05:49:01.936Z,4.23
2018-12-02T05:51:30.136Z,4.67
2018-12-02T05:53:58.273Z,4.20
2018-12-02T05:56:26.384Z,4.93
2018-12-02T05:58:54.540Z,6.03
2018-12-02T06:01:22.695Z,6.83
2018-12-02T06:03:51.193Z,6.63
2018-12-02T06:06:19.324Z,7.20
2018-12-02T06:08:47.465Z,6.77
2018-12-02T06:11:15.636Z,6.50
2018-12-02T06:13:43.781Z,7.10
2018-12-02T06:16:11.920Z,7.53
2018-12-02T06:18:40.096Z,9.77
2018-12-02T06:21:08.245Z,8.30
2018-12-02T06:23:36.386Z,8.50
2018-12-02T06:26:04.560Z,7.40
2018-12-02T06:28:32.705Z,8.77
2018-12-02T06:31:00.832Z,8.23
2018-12-02T06:33:28.960Z,8.53
2018-12-02T06:35:57.085Z,8.33
2018-12-02T06:38:25.232Z,9.77
2018-12-02T06:40:53.392Z,8.57
2018-12-02T06:43:21.513Z,5.30
2018-12-02T06:45:49.648Z,4.83
2018-12-02T06:48:17.776Z,6.60
2018-12-02T06:50:45.956Z,4.43
2018-12-02T06:53:14.152Z,15.83
2018-12-02T06:55:47.958Z,3.67
2018-12-02T06:58:26.973Z,14.57
2018-12-02T07:00:58.399Z,5.70
2018-12-02T07:03:37.537Z,12.47
2018-12-02T07:06:06.037Z,8.07
2018-12-02T07:08:34.169Z,5.10
2018-12-02T07:11:02.297Z,9.43
2018-12-02T07:13:30.421Z,3.23
2018-12-02T07:15:58.552Z,7.97
2018-12-02T07:18:27.967Z,3.37
2018-12-02T07:20:56.115Z,5.33
2018-12-02T07:23:28.232Z,9.27
2018-12-02T07:25:57.880Z,5.27
2018-12-02T07:28:26.029Z,3.13
2018-12-02T07:30:54.183Z,12.83
2018-12-02T07:33:22.316Z,7.90
2018-12-02T07:35:50.456Z,11.53
2018-12-02T07:38:23.256Z,7.53
2018-12-02T07:40:51.763Z,11.37
2018-12-02T07:43:19.904Z,9.53
2018-12-02T07:45:48.065Z,5.90
2018-12-02T07:48:16.225Z,6.17
2018-12-02T07:50:44.360Z,5.20
2018-12-02T07:53:12.508Z,2.67
2018-12-02T07:55:40.696Z,4.17
2018-12-02T07:58:15.425Z,2.93
2018-12-02T08:00:43.877Z,11.90
2018-12-02T08:03:12.044Z,10.33
2018-12-02T08:05:40.259Z,16.37
2018-12-02T08:08:08.488Z,12.50
2018-12-02T08:10:36.632Z,5.23
2018-12-02T08:13:05.271Z,12.13
2018-12-02T08:15:33.409Z,11.23
2018-12-02T08:18:01.550Z,17.80
2018-12-02T08:20:29.720Z,5.27
2018-12-02T08:22:57.882Z,12.17
2018-12-02T08:25:26.012Z,12.53
2018-12-02T08:27:54.194Z,9.40
2018-12-02T08:30:24.823Z,12.50
2018-12-02T08:32:53.300Z,4.67
2018-12-02T08:35:23.118Z,5.50
2018-12-02T08:37:52.220Z,13.90
2018-12-02T08:40:20.362Z,5.17
2018-12-02T08:42:48.526Z,6.63
2018-12-02T08:45:17.166Z,13.87
2018-12-02T08:47:45.402Z,12.10
2018-12-02T08:50:14.062Z,5.63
2018-12-02T08:52:42.250Z,8.77
2018-12-02T08:55:10.927Z,11.33
2018-12-02T08:57:39.135Z,9.63
2018-12-02T09:00:10.263Z,4.27
2018-12-02T09:02:38.404Z,4.67
2018-12-02T09:05:08.332Z,3.60
2018-12-02T09:07:36.472Z,8.53
2018-12-02T09:10:07.761Z,9.83
2018-12-02T09:12:35.901Z,6.33
2018-12-02T09:15:04.060Z,3.30
2018-12-02T09:17:32.201Z,6.13
2018-12-02T09:20:00.329Z,8.70
2018-12-02T09:22:28.464Z,14.13
2018-12-02T09:24:56.632Z,11.47
2018-12-02T09:27:24.759Z,10.37
2018-12-02T09:29:52.904Z,7.10
2018-12-02T09:32:21.069Z,8.67
2018-12-02T09:34:49.202Z,7.47
2018-12-02T09:37:17.342Z,8.87
2018-12-02T09:39:45.524Z,14.83
2018-12-02T09:42:13.668Z,11.73
2018-12-02T09:44:41.817Z,6.90
2018-12-02T09:47:10.005Z,8.60
2018-12-02T09:49:38.146Z,12.00
2018-12-02T09:52:06.314Z,6.67
2018-12-02T09:54:34.475Z,8.17
2018-12-02T09:57:02.608Z,13.73
2018-12-02T09:59:30.774Z,11.90
2018-12-02T10:01:58.950Z,6.00
2018-12-02T10:04:27.074Z,8.87
2018-12-02T10:06:55.223Z,9.30
2018-12-02T10:09:23.374Z,15.73
2018-12-02T10:11:51.509Z,10.37
2018-12-02T10:14:19.660Z,7.87
2018-12-02T10:16:47.820Z,8.60
2018-12-02T10:19:15.960Z,6.60
2018-12-02T10:21:44.117Z,10.73
2018-12-02T10:24:12.265Z,10.00
2018-12-02T10:26:40.645Z,7.13
2018-12-02T10:29:08.821Z,11.70
2018-12-02T10:31:36.968Z,15.27
2018-12-02T10:34:05.485Z,6.20
2018-12-02T10:36:33.632Z,11.63
2018-12-02T10:39:01.774Z,7.93
2018-12-02T10:41:29.910Z,11.27
2018-12-02T10:43:58.041Z,7.17
2018-12-02T10:46:26.207Z,10.97
2018-12-02T10:48:54.337Z,9.83
2018-12-02T10:51:22.495Z,11.87
2018-12-02T10:53:50.628Z,15.30
2018-12-02T10:56:18.785Z,6.93
2018-12-02T10:58:46.916Z,6.43
2018-12-02T11:01:17.554Z,11.57
2018-12-02T11:03:46.247Z,5.63
2018-12-02T11:06:19.012Z,7.60
2018-12-02T11:08:47.178Z,12.47
2018-12-02T11:11:15.322Z,9.17
2018-12-02T11:13:43.486Z,8.03
2018-12-02T11:16:11.642Z,8.80
2018-12-02T11:18:39.813Z,11.73
2018-12-02T11:21:07.969Z,8.77
2018-12-02T11:23:36.112Z,18.90
2018-12-02T11:26:04.496Z,11.30
2018-12-02T11:28:32.642Z,12.30
2018-12-02T11:31:00.793Z,8.43
2018-12-02T11:33:28.933Z,9.57
2018-12-02T11:35:57.087Z,15.63
2018-12-02T11:38:25.236Z,9.67
2018-12-02T11:40:53.392Z,9.37
2018-12-02T11:43:22.392Z,13.40
2018-12-02T11:45:50.540Z,12.93
2018-12-02T11:48:18.677Z,5.10
2018-12-02T11:50:46.817Z,7.70
2018-12-02T11:53:14.962Z,10.10
2018-12-02T11:55:43.105Z,6.30
2018-12-02T11:58:11.258Z,8.47
2018-12-02T12:00:40.056Z,5.43
2018-12-02T12:03:08.256Z,12.43
2018-12-02T12:05:36.769Z,11.03
2018-12-02T12:08:05.692Z,10.23
2018-12-02T12:10:33.871Z,11.17
2018-12-02T12:13:02.029Z,15.77
2018-12-02T12:15:30.581Z,12.90
2018-12-02T12:17:59.061Z,5.80
2018-12-02T12:20:34.492Z,11.53
2018-12-02T12:23:02.646Z,14.57
2018-12-02T12:25:30.854Z,8.17
2018-12-02T12:27:59.111Z,6.30
2018-12-02T12:30:28.866Z,4.47
2018-12-02T12:32:57.011Z,18.43
2018-12-02T12:35:25.263Z,6.10
2018-12-02T12:37:53.409Z,12.97
2018-12-02T12:40:22.375Z,8.27
2018-12-02T12:42:54.329Z,10.20
2018-12-02T12:45:22.472Z,15.13
2018-12-02T12:47:50.596Z,21.50
2018-12-02T12:50:18.752Z,19.57
2018-12-02T12:52:46.893Z,8.83
2018-12-02T12:55:16.296Z,12.33
2018-12-02T12:57:44.796Z,11.77
2018-12-02T13:00:14.623Z,9.57
2018-12-02T13:02:42.812Z,10.80
2018-12-02T13:05:12.612Z,8.90
2018-12-02T13:07:40.812Z,16.53
2018-12-02T13:10:10.583Z,10.73
2018-12-02T13:12:38.798Z,13.37
2018-12-02T13:15:08.170Z,5.73
2018-12-02T13:17:36.309Z,6.17
2018-12-02T13:20:06.032Z,5.83
2018-12-02T13:22:34.161Z,5.90
2018-12-02T13:25:02.305Z,8.00
2018-12-02T13:27:30.458Z,15.47
2018-12-02T13:29:58.616Z,10.77
2018-12-02T13:32:26.745Z,12.57
2018-12-02T13:34:54.895Z,9.33
2018-12-02T13:37:23.017Z,9.10
2018-12-02T13:39:51.165Z,9.57
2018-12-02T13:42:19.292Z,8.87
2018-12-02T13:44:47.424Z,4.67
2018-12-02T13:47:15.576Z,4.80
2018-12-02T13:49:43.721Z,9.00
2018-12-02T13:52:11.866Z,10.53
2018-12-02T13:54:40.008Z,9.53
2018-12-02T13:57:08.145Z,7.60
2018-12-02T13:59:36.279Z,8.43
2018-12-02T14:02:04.687Z,7.60
2018-12-02T14:04:32.829Z,7.00
2018-12-02T14:07:01.010Z,10.53
2018-12-02T14:09:29.141Z,5.43
2018-12-02T14:11:57.308Z,14.03
2018-12-02T14:14:25.468Z,6.90
2018-12-02T14:16:56.392Z,3.60
2018-12-02T14:19:24.528Z,8.77
2018-12-02T14:21:52.654Z,7.13
2018-12-02T14:24:20.789Z,9.27
2018-12-02T14:26:49.272Z,6.67
2018-12-02T14:29:18.397Z,11.97
2018-12-02T14:31:50.786Z,11.27
2018-12-02T14:34:18.928Z,8.57
2018-12-02T14:36:47.064Z,8.23
2018-12-02T14:39:15.226Z,8.97
2018-12-02T14:41:43.402Z,8.33
2018-12-02T14:44:11.535Z,4.63
2018-12-02T14:46:39.692Z,4.47
2018-12-02T14:49:07.827Z,10.47
2018-12-02T14:51:36.008Z,11.73
2018-12-02T14:54:04.166Z,8.70
2018-12-02T14:56:32.299Z,6.00
2018-12-02T14:59:00.453Z,9.57
2018-12-02T15:01:28.593Z,8.23
2018-12-02T15:03:56.787Z,5.83
2018-12-02T15:06:24.940Z,7.60
2018-12-02T15:08:53.149Z,3.60
2018-12-02T15:11:21.297Z,7.27
2018-12-02T15:13:49.455Z,7.77
2018-12-02T15:16:17.633Z,9.67
2018-12-02T15:18:45.798Z,4.70
2018-12-02T15:21:13.966Z,8.27
2018-12-02T15:23:42.109Z,10.73
2018-12-02T15:26:10.273Z,14.57
2018-12-02T15:44:17.894Z,6.57
2018-12-02T15:46:46.103Z,5.47
2018-12-02T15:49:14.256Z,6.60
2018-12-02T15:51:42.396Z,8.77
2018-12-02T15:54:10.569Z,7.37
2018-12-02T15:56:38.724Z,12.13
2018-12-02T15:59:08.121Z,8.13
2018-12-02T16:01:36.705Z,8.10
2018-12-02T16:04:05.192Z,13.40
2018-12-02T16:06:33.320Z,6.43
2018-12-02T16:09:01.560Z,8.07
2018-12-02T16:11:29.702Z,4.53
2018-12-02T16:13:57.844Z,8.67
2018-12-02T16:16:26.008Z,12.27
2018-12-02T16:18:54.155Z,11.07
2018-12-02T16:21:22.298Z,9.40
2018-12-02T16:23:50.441Z,6.70
2018-12-02T16:26:18.581Z,14.03
2018-12-02T16:28:46.747Z,12.63
2018-12-02T16:31:14.908Z,10.43
2018-12-02T16:33:43.057Z,5.30
2018-12-02T16:36:11.194Z,12.53
2018-12-02T16:38:39.366Z,13.73
2018-12-02T16:41:07.517Z,7.83
2018-12-02T16:43:35.673Z,14.17
2018-12-02T16:46:03.833Z,11.40
2018-12-02T16:48:31.994Z,14.83
2018-12-02T16:51:00.127Z,10.77
2018-12-02T16:53:28.773Z,13.33
2018-12-02T16:56:05.373Z,15.27
2018-12-02T17:42:39.620Z,13.07
2018-12-02T17:45:08.510Z,8.67
2018-12-02T17:47:36.653Z,9.50
2018-12-02T17:50:07.440Z,9.07
2018-12-02T17:52:35.593Z,17.37
2018-12-02T17:55:03.985Z,10.03
2018-12-02T17:57:32.153Z,8.40
2018-12-02T18:00:00.292Z,10.67
2018-12-02T18:02:28.454Z,7.33
2018-12-02T18:04:56.601Z,11.80
2018-12-02T18:07:24.770Z,14.83
2018-12-02T18:09:55.969Z,15.13
2018-12-02T18:12:24.803Z,14.80
2018-12-02T18:14:52.949Z,14.93
2018-12-02T18:17:21.127Z,11.67
2018-12-02T18:19:49.486Z,18.30
2018-12-02T18:22:17.616Z,8.57
2018-12-02T18:24:45.802Z,17.43
2018-12-02T18:27:13.937Z,11.63
2018-12-02T18:29:42.160Z,7.97
2018-12-02T18:32:10.380Z,11.33
2018-12-02T18:34:38.580Z,8.30
2018-12-02T18:37:07.922Z,13.63
2018-12-02T18:39:36.069Z,17.40
2018-12-02T18:42:04.461Z,11.80
2018-12-02T18:44:33.002Z,10.07
2018-12-02T18:47:01.145Z,18.80
2018-12-02T18:49:29.496Z,13.40
2018-12-02T18:51:57.619Z,8.43
2018-12-02T18:54:25.789Z,17.43
2018-12-02T18:56:53.919Z,21.33
2018-12-02T18:59:22.057Z,9.80
2018-12-02T19:01:50.248Z,8.20
2018-12-02T19:04:18.422Z,16.40
2018-12-02T19:06:46.621Z,18.60
2018-12-02T19:09:14.868Z,11.67
2018-12-02T19:11:42.994Z,9.53
2018-12-02T19:14:11.209Z,16.67
2018-12-02T19:16:39.364Z,14.57
2018-12-02T19:19:07.790Z,9.60
2018-12-02T19:21:35.967Z,15.60
2018-12-02T19:24:04.164Z,9.93
2018-12-02T19:26:32.316Z,13.57
2018-12-02T19:29:00.464Z,11.83
2018-12-02T19:31:28.622Z,10.13
2018-12-02T19:33:57.020Z,12.73
2018-12-02T19:36:26.542Z,11.00
2018-12-02T19:38:54.702Z,16.23
2018-12-02T19:41:22.841Z,17.10
2018-12-02T19:43:50.997Z,8.73
2018-12-02T19:46:19.137Z,16.50
2018-12-02T19:48:47.308Z,15.30
2018-12-02T19:51:15.473Z,12.77
2018-12-02T19:53:43.653Z,10.17
2018-12-02T19:56:11.859Z,12.33
2018-12-02T19:58:39.997Z,9.33
2018-12-02T20:01:08.132Z,12.00
2018-12-02T20:03:36.276Z,16.40
2018-12-02T20:06:04.459Z,12.00
2018-12-02T20:08:32.608Z,9.07
2018-12-02T20:11:00.728Z,9.73
2018-12-02T20:13:28.890Z,8.83
2018-12-02T20:16:02.617Z,11.17
2018-12-02T20:18:30.796Z,9.30
2018-12-02T20:20:59.713Z,7.70
2018-12-02T20:23:33.612Z,8.33
2018-12-02T20:26:02.204Z,5.13
2018-12-02T20:28:32.316Z,12.77
2018-12-02T20:31:01.499Z,13.13
2018-12-02T20:33:29.655Z,22.53
2018-12-02T20:35:57.804Z,15.40
2018-12-02T20:38:25.997Z,18.77
2018-12-02T20:40:54.141Z,15.97
2018-12-02T20:43:22.269Z,13.27
2018-12-02T20:45:50.416Z,14.33
2018-12-02T20:48:18.559Z,16.50
2018-12-02T20:50:46.750Z,12.90
2018-12-02T20:53:16.192Z,11.53
2018-12-02T20:55:43.074Z,18.37
2018-12-02T20:58:11.208Z,11.13
2018-12-02T21:00:39.385Z,12.60
2018-12-02T21:03:09.197Z,21.20
2018-12-02T21:05:39.339Z,16.77
2018-12-02T21:08:07.481Z,10.33
2018-12-02T21:10:35.596Z,13.97
2018-12-02T21:13:03.741Z,11.23
2018-12-02T21:15:31.913Z,11.73
2018-12-02T21:18:00.100Z,17.60
2018-12-02T21:20:28.262Z,12.50
2018-12-02T21:22:56.401Z,14.57
2018-12-02T21:25:25.125Z,11.20
2018-12-02T21:27:53.288Z,8.87
2018-12-02T21:30:22.188Z,10.47
2018-12-02T21:32:50.335Z,9.80
2018-12-02T21:35:18.483Z,14.60
2018-12-02T21:37:46.992Z,11.57
2018-12-02T21:40:15.703Z,9.73
2018-12-02T21:42:43.872Z,11.50
2018-12-02T21:45:12.607Z,8.33
2018-12-02T21:47:41.623Z,12.57
2018-12-02T21:50:10.612Z,10.17
2018-12-02T21:52:38.760Z,11.63
2018-12-02T21:55:07.283Z,12.67
2018-12-02T21:57:35.755Z,11.53
2018-12-02T22:00:05.829Z,18.47
2018-12-02T22:02:33.960Z,14.53
2018-12-02T22:05:02.117Z,16.67
2018-12-02T22:07:30.909Z,11.07
2018-12-02T22:09:59.079Z,10.27
2018-12-02T22:12:27.240Z,12.67
2018-12-02T22:14:55.377Z,12.07
2018-12-02T22:17:23.507Z,6.37
2018-12-02T22:19:51.688Z,8.60
2018-12-02T22:22:19.842Z,7.37
2018-12-02T22:24:47.989Z,9.77
2018-12-02T22:27:16.156Z,9.00
2018-12-02T22:29:44.384Z,6.37
2018-12-02T22:32:12.511Z,9.47
2018-12-02T22:34:40.687Z,9.33
2018-12-02T22:37:08.812Z,5.80
2018-12-02T22:39:36.955Z,7.27
2018-12-02T22:42:05.276Z,11.37
2018-12-02T22:44:33.423Z,11.30
2018-12-02T22:47:01.552Z,11.17
2018-12-02T22:49:30.041Z,12.33
2018-12-02T22:51:58.180Z,10.33
2018-12-02T22:54:26.718Z,5.60
2018-12-02T22:56:54.895Z,10.50
2018-12-02T22:59:23.041Z,6.60
2018-12-02T23:01:56.508Z,11.63
2018-12-02T23:04:24.632Z,15.60
2018-12-02T23:06:52.753Z,7.50
2018-12-02T23:09:20.896Z,12.00
2018-12-02T23:11:49.032Z,11.63
2018-12-02T23:14:17.196Z,10.70
2018-12-02T23:16:50.847Z,7.57
2018-12-02T23:19:19.004Z,10.33
2018-12-02T23:21:47.237Z,14.93
2018-12-02T23:24:16.802Z,16.80
2018-12-02T23:26:50.788Z,10.70
2018-12-02T23:29:18.951Z,19.03
2018-12-02T23:31:47.071Z,12.00
2018-12-02T23:34:15.697Z,13.03
2018-12-02T23:36:43.845Z,12.73
2018-12-02T23:39:11.997Z,14.10
2018-12-02T23:41:40.412Z,15.10
2018-12-02T23:44:08.556Z,9.17
2018-12-02T23:46:36.707Z,12.13
2018-12-02T23:49:05.061Z,13.33
2018-12-02T23:51:33.217Z,6.43
2018-12-02T23:54:01.342Z,11.63
2018-12-02T23:56:29.472Z,18.53
2018-12-02T23:58:57.625Z,16.63
